METAR AND TAF INFORMATION
METAR FOR LEGR
ADDS - METARS form results

(2120 UTC 03 August 2021)
Data provider http://aviationweather.gov/metar/data/
 
METAR text: LEGR 032100Z VRB02KT CAVOK 26/14 Q1018
Conditions at: LEGR (GRANADA AIRPORT , ES) observed 2100 UTC 03 August 2021
Temperature: 26.0°C (79°F)
Dewpoint: 14.0°C (57°F) [RH = 48%]
Pressure (altimeter): 30.06 inches Hg (1018.0 mb)
Winds: variable direction winds at 2 MPH (2 knots; 1.0 m/s)
Visibility: 6 or more miles (10+ km)
Ceiling: ceiling and visibility are OK
Clouds: unknown
Weather: no significant weather observed at this time

METAR text: LEGR 032030Z 20006KT 180V240 CAVOK 27/14 Q1017
Conditions at: LEGR (GRANADA AIRPORT , ES) observed 2030 UTC 03 August 2021
Temperature: 27.0°C (81°F)
Dewpoint: 14.0°C (57°F) [RH = 45%]
Pressure (altimeter): 30.03 inches Hg (1017.0 mb)
Winds: from the SSW (200 degrees) at 7 MPH (6 knots; 3.1 m/s)
Visibility: 6 or more miles (10+ km)
Ceiling: ceiling and visibility are OK
Clouds: unknown
Weather: no significant weather observed at this time

Forecast for: LEGR (GRANADA AIRPORT , ES)
Text: TAF LEGR 031700Z 0318/0418 VRB03KT CAVOK TX36/0414Z TN20/0405Z
Forecast period: 1800 UTC 03 August 2021 to 1200 UTC 04 August 2021
Forecast type: FROM: standard forecast or significant change
Winds: variable direction winds at 3 MPH (3 knots; 1.5 m/s)
Visibility: 6 or more miles (10+ km)
Ceiling: unknown
Clouds: missing
Weather: no significant weather forecast for this period
Text: BECMG 0412/0414 29010KT
Forecast period: 1200 to 1800 UTC 04 August 2021
Forecast type: BECOMING: Conditions expected to become as follows by 1400 UTC 04 August 2021
Winds: from the WNW (290 degrees) at 12 MPH (10 knots; 5.1 m/s)
Visibility: 6 or more miles (10+ km)
Ceiling: unknown
Clouds: missing
Weather: no significant weather forecast for this period

 AIRPORT MAP

 RUNWAY INFORMATION
Runway 09 Runway length 9514 ft Runway width 148 ft
Runway elevation 1842 ft Runway displaced threshold 0 ft Runway heading 90
Runway 27 Runway length 9514 ft Runway width 148 ft
Runway elevation 1860 ft Runway displaced threshold 0 ft Runway heading 270

 AIRPORT FREQUENCIES
Type GND Name GND Frequency 121.7 MHZ
Type TWR Name TWR Frequency 118.85 MHZ

 AIRPORT NEAR NAVIGATION AIDS
Type VOR-DME Name Granada Frequency 113400 KHZ





Powered by Virtual Airlines Manager

Maps by Rafael Santos